sensor_id;sensor_type;location;lat;lon;timestamp;P1;durP1;ratioP1;P2;durP2;ratioP2
20306;SDS011;10312;52.434;13.206;2023-07-13T00:00:38;5.97;;;2.15;;
20306;SDS011;10312;52.434;13.206;2023-07-13T00:03:04;4.18;;;1.80;;
20306;SDS011;10312;52.434;13.206;2023-07-13T00:05:32;9.23;;;2.13;;
20306;SDS011;10312;52.434;13.206;2023-07-13T00:07:58;4.88;;;1.85;;
20306;SDS011;10312;52.434;13.206;2023-07-13T00:10:25;5.72;;;1.88;;
20306;SDS011;10312;52.434;13.206;2023-07-13T00:12:56;4.03;;;1.67;;
20306;SDS011;10312;52.434;13.206;2023-07-13T00:15:24;5.57;;;1.92;;
20306;SDS011;10312;52.434;13.206;2023-07-13T00:17:53;5.15;;;2.05;;
20306;SDS011;10312;52.434;13.206;2023-07-13T00:20:21;2.38;;;1.48;;
20306;SDS011;10312;52.434;13.206;2023-07-13T00:22:49;4.82;;;1.55;;
20306;SDS011;10312;52.434;13.206;2023-07-13T00:25:16;4.45;;;1.70;;
20306;SDS011;10312;52.434;13.206;2023-07-13T00:27:43;4.68;;;1.90;;
20306;SDS011;10312;52.434;13.206;2023-07-13T00:30:10;2.72;;;1.50;;
20306;SDS011;10312;52.434;13.206;2023-07-13T00:32:38;4.97;;;1.77;;
20306;SDS011;10312;52.434;13.206;2023-07-13T00:35:05;6.45;;;1.65;;
20306;SDS011;10312;52.434;13.206;2023-07-13T00:37:32;4.22;;;1.70;;
20306;SDS011;10312;52.434;13.206;2023-07-13T00:39:59;2.70;;;1.95;;
20306;SDS011;10312;52.434;13.206;2023-07-13T00:42:26;5.00;;;1.55;;
20306;SDS011;10312;52.434;13.206;2023-07-13T00:47:38;4.13;;;1.73;;
20306;SDS011;10312;52.434;13.206;2023-07-13T00:50:08;5.07;;;1.60;;
20306;SDS011;10312;52.434;13.206;2023-07-13T00:52:38;3.10;;;1.60;;
20306;SDS011;10312;52.434;13.206;2023-07-13T00:55:07;2.70;;;1.40;;
20306;SDS011;10312;52.434;13.206;2023-07-13T00:57:35;3.13;;;1.55;;
20306;SDS011;10312;52.434;13.206;2023-07-13T01:00:04;4.82;;;1.70;;
20306;SDS011;10312;52.434;13.206;2023-07-13T01:02:35;3.45;;;1.73;;
20306;SDS011;10312;52.434;13.206;2023-07-13T01:05:15;3.42;;;1.50;;
20306;SDS011;10312;52.434;13.206;2023-07-13T01:07:44;4.53;;;1.77;;
20306;SDS011;10312;52.434;13.206;2023-07-13T01:10:12;6.20;;;1.83;;
20306;SDS011;10312;52.434;13.206;2023-07-13T01:12:39;2.65;;;1.40;;
20306;SDS011;10312;52.434;13.206;2023-07-13T01:18:07;8.45;;;1.75;;
20306;SDS011;10312;52.434;13.206;2023-07-13T01:20:37;5.18;;;1.92;;
20306;SDS011;10312;52.434;13.206;2023-07-13T01:23:08;3.25;;;1.50;;
20306;SDS011;10312;52.434;13.206;2023-07-13T01:25:37;2.80;;;1.70;;
20306;SDS011;10312;52.434;13.206;2023-07-13T01:28:05;2.17;;;1.50;;
20306;SDS011;10312;52.434;13.206;2023-07-13T01:30:37;3.97;;;1.75;;
20306;SDS011;10312;52.434;13.206;2023-07-13T01:33:07;3.05;;;1.85;;
20306;SDS011;10312;52.434;13.206;2023-07-13T01:35:35;5.40;;;1.63;;
20306;SDS011;10312;52.434;13.206;2023-07-13T01:38:02;3.45;;;1.83;;
20306;SDS011;10312;52.434;13.206;2023-07-13T01:40:29;2.97;;;1.80;;
20306;SDS011;10312;52.434;13.206;2023-07-13T01:42:57;3.22;;;1.80;;
20306;SDS011;10312;52.434;13.206;2023-07-13T01:45:24;6.88;;;1.77;;
20306;SDS011;10312;52.434;13.206;2023-07-13T01:47:51;5.18;;;2.10;;
20306;SDS011;10312;52.434;13.206;2023-07-13T01:50:18;3.55;;;1.85;;
20306;SDS011;10312;52.434;13.206;2023-07-13T01:52:45;6.63;;;1.90;;
20306;SDS011;10312;52.434;13.206;2023-07-13T01:55:13;6.43;;;1.80;;
20306;SDS011;10312;52.434;13.206;2023-07-13T01:57:40;2.47;;;1.52;;
20306;SDS011;10312;52.434;13.206;2023-07-13T02:00:08;4.15;;;2.05;;
20306;SDS011;10312;52.434;13.206;2023-07-13T02:02:45;3.40;;;1.90;;
20306;SDS011;10312;52.434;13.206;2023-07-13T02:05:13;4.65;;;1.90;;
20306;SDS011;10312;52.434;13.206;2023-07-13T02:07:43;4.63;;;2.00;;
20306;SDS011;10312;52.434;13.206;2023-07-13T02:10:10;2.17;;;1.67;;
20306;SDS011;10312;52.434;13.206;2023-07-13T02:12:38;4.13;;;1.98;;
20306;SDS011;10312;52.434;13.206;2023-07-13T02:15:05;4.43;;;2.30;;
20306;SDS011;10312;52.434;13.206;2023-07-13T02:17:33;3.28;;;1.90;;
20306;SDS011;10312;52.434;13.206;2023-07-13T02:20:01;4.35;;;2.03;;
20306;SDS011;10312;52.434;13.206;2023-07-13T02:22:30;3.35;;;1.88;;
20306;SDS011;10312;52.434;13.206;2023-07-13T02:24:56;3.03;;;2.03;;
20306;SDS011;10312;52.434;13.206;2023-07-13T02:27:24;3.38;;;1.80;;
20306;SDS011;10312;52.434;13.206;2023-07-13T02:29:51;4.82;;;2.17;;
20306;SDS011;10312;52.434;13.206;2023-07-13T02:32:20;3.28;;;2.10;;
20306;SDS011;10312;52.434;13.206;2023-07-13T02:34:47;3.35;;;2.15;;
20306;SDS011;10312;52.434;13.206;2023-07-13T02:37:14;3.70;;;2.38;;
20306;SDS011;10312;52.434;13.206;2023-07-13T02:39:41;3.83;;;1.90;;
20306;SDS011;10312;52.434;13.206;2023-07-13T02:42:07;3.28;;;2.25;;
20306;SDS011;10312;52.434;13.206;2023-07-13T02:44:35;4.65;;;2.13;;
20306;SDS011;10312;52.434;13.206;2023-07-13T02:47:03;4.00;;;2.08;;
20306;SDS011;10312;52.434;13.206;2023-07-13T02:49:30;3.25;;;2.33;;
20306;SDS011;10312;52.434;13.206;2023-07-13T02:51:57;5.05;;;2.45;;
20306;SDS011;10312;52.434;13.206;2023-07-13T02:54:27;4.43;;;2.60;;
20306;SDS011;10312;52.434;13.206;2023-07-13T02:56:54;3.95;;;2.35;;
20306;SDS011;10312;52.434;13.206;2023-07-13T02:59:21;4.85;;;2.33;;
20306;SDS011;10312;52.434;13.206;2023-07-13T03:01:48;3.50;;;1.90;;
20306;SDS011;10312;52.434;13.206;2023-07-13T03:04:15;4.90;;;2.33;;
20306;SDS011;10312;52.434;13.206;2023-07-13T03:06:46;4.13;;;2.47;;
20306;SDS011;10312;52.434;13.206;2023-07-13T03:09:14;4.13;;;2.17;;
20306;SDS011;10312;52.434;13.206;2023-07-13T03:11:46;6.65;;;3.00;;
20306;SDS011;10312;52.434;13.206;2023-07-13T03:14:21;5.68;;;2.53;;
20306;SDS011;10312;52.434;13.206;2023-07-13T03:16:49;3.70;;;2.05;;
20306;SDS011;10312;52.434;13.206;2023-07-13T03:19:16;5.18;;;2.50;;
20306;SDS011;10312;52.434;13.206;2023-07-13T03:21:47;3.97;;;2.42;;
20306;SDS011;10312;52.434;13.206;2023-07-13T03:24:14;5.38;;;2.42;;
20306;SDS011;10312;52.434;13.206;2023-07-13T03:26:42;4.63;;;2.60;;
20306;SDS011;10312;52.434;13.206;2023-07-13T03:29:09;3.92;;;2.45;;
20306;SDS011;10312;52.434;13.206;2023-07-13T03:31:37;5.10;;;2.20;;
20306;SDS011;10312;52.434;13.206;2023-07-13T03:34:04;7.18;;;2.40;;
20306;SDS011;10312;52.434;13.206;2023-07-13T03:36:32;4.57;;;2.42;;
20306;SDS011;10312;52.434;13.206;2023-07-13T03:39:03;3.33;;;2.30;;
20306;SDS011;10312;52.434;13.206;2023-07-13T03:41:43;3.80;;;2.15;;
20306;SDS011;10312;52.434;13.206;2023-07-13T03:44:11;14.32;;;2.95;;
20306;SDS011;10312;52.434;13.206;2023-07-13T03:46:38;8.63;;;2.50;;
20306;SDS011;10312;52.434;13.206;2023-07-13T03:49:08;4.68;;;2.55;;
20306;SDS011;10312;52.434;13.206;2023-07-13T03:51:35;4.95;;;2.28;;
20306;SDS011;10312;52.434;13.206;2023-07-13T03:54:03;5.22;;;2.45;;
20306;SDS011;10312;52.434;13.206;2023-07-13T03:56:30;3.95;;;2.25;;
20306;SDS011;10312;52.434;13.206;2023-07-13T03:59:00;3.55;;;2.60;;
20306;SDS011;10312;52.434;13.206;2023-07-13T04:01:29;6.43;;;2.30;;
20306;SDS011;10312;52.434;13.206;2023-07-13T04:03:56;3.80;;;2.50;;
20306;SDS011;10312;52.434;13.206;2023-07-13T04:06:28;3.67;;;2.47;;
20306;SDS011;10312;52.434;13.206;2023-07-13T04:08:57;3.28;;;2.28;;
20306;SDS011;10312;52.434;13.206;2023-07-13T04:11:26;6.63;;;2.95;;
20306;SDS011;10312;52.434;13.206;2023-07-13T04:13:55;4.60;;;2.70;;
20306;SDS011;10312;52.434;13.206;2023-07-13T04:16:22;4.57;;;2.50;;
20306;SDS011;10312;52.434;13.206;2023-07-13T04:18:50;5.65;;;2.70;;
20306;SDS011;10312;52.434;13.206;2023-07-13T04:21:21;4.38;;;2.30;;
20306;SDS011;10312;52.434;13.206;2023-07-13T04:23:48;6.57;;;2.42;;
20306;SDS011;10312;52.434;13.206;2023-07-13T04:26:15;4.00;;;2.50;;
20306;SDS011;10312;52.434;13.206;2023-07-13T04:28:42;3.53;;;2.10;;
20306;SDS011;10312;52.434;13.206;2023-07-13T04:31:09;4.15;;;2.67;;
20306;SDS011;10312;52.434;13.206;2023-07-13T04:33:36;5.45;;;2.30;;
20306;SDS011;10312;52.434;13.206;2023-07-13T04:36:03;4.22;;;2.13;;
20306;SDS011;10312;52.434;13.206;2023-07-13T04:38:31;6.38;;;2.72;;
20306;SDS011;10312;52.434;13.206;2023-07-13T04:41:00;5.40;;;2.58;;
20306;SDS011;10312;52.434;13.206;2023-07-13T04:43:29;6.30;;;2.20;;
20306;SDS011;10312;52.434;13.206;2023-07-13T04:45:56;3.90;;;2.35;;
20306;SDS011;10312;52.434;13.206;2023-07-13T04:48:23;4.43;;;2.38;;
20306;SDS011;10312;52.434;13.206;2023-07-13T04:50:54;3.63;;;2.17;;
20306;SDS011;10312;52.434;13.206;2023-07-13T04:53:22;4.78;;;2.10;;
20306;SDS011;10312;52.434;13.206;2023-07-13T04:55:49;3.70;;;1.92;;
20306;SDS011;10312;52.434;13.206;2023-07-13T04:58:16;6.82;;;3.05;;
20306;SDS011;10312;52.434;13.206;2023-07-13T05:00:42;5.07;;;2.00;;
20306;SDS011;10312;52.434;13.206;2023-07-13T05:03:09;5.55;;;2.20;;
20306;SDS011;10312;52.434;13.206;2023-07-13T05:05:36;3.15;;;2.08;;
20306;SDS011;10312;52.434;13.206;2023-07-13T05:08:03;3.67;;;1.98;;
20306;SDS011;10312;52.434;13.206;2023-07-13T05:10:30;5.47;;;2.60;;
20306;SDS011;10312;52.434;13.206;2023-07-13T05:12:57;4.72;;;1.95;;
20306;SDS011;10312;52.434;13.206;2023-07-13T05:15:24;4.18;;;1.90;;
20306;SDS011;10312;52.434;13.206;2023-07-13T05:17:51;5.43;;;2.42;;
20306;SDS011;10312;52.434;13.206;2023-07-13T05:20:19;5.10;;;2.20;;
20306;SDS011;10312;52.434;13.206;2023-07-13T05:22:46;4.03;;;1.88;;
20306;SDS011;10312;52.434;13.206;2023-07-13T05:25:17;4.97;;;1.98;;
20306;SDS011;10312;52.434;13.206;2023-07-13T05:27:44;8.10;;;2.03;;
20306;SDS011;10312;52.434;13.206;2023-07-13T05:30:12;4.13;;;2.08;;
20306;SDS011;10312;52.434;13.206;2023-07-13T05:32:39;5.38;;;2.63;;
20306;SDS011;10312;52.434;13.206;2023-07-13T05:35:10;6.13;;;2.20;;
20306;SDS011;10312;52.434;13.206;2023-07-13T05:37:37;3.30;;;2.03;;
20306;SDS011;10312;52.434;13.206;2023-07-13T05:40:04;3.95;;;2.13;;
20306;SDS011;10312;52.434;13.206;2023-07-13T05:42:31;5.45;;;1.90;;
20306;SDS011;10312;52.434;13.206;2023-07-13T05:44:58;3.60;;;1.83;;
20306;SDS011;10312;52.434;13.206;2023-07-13T05:47:24;3.80;;;1.92;;
20306;SDS011;10312;52.434;13.206;2023-07-13T05:49:51;7.47;;;2.00;;
20306;SDS011;10312;52.434;13.206;2023-07-13T05:52:18;3.58;;;2.00;;
20306;SDS011;10312;52.434;13.206;2023-07-13T05:54:45;4.07;;;1.73;;
20306;SDS011;10312;52.434;13.206;2023-07-13T05:57:12;4.32;;;1.83;;
20306;SDS011;10312;52.434;13.206;2023-07-13T05:59:39;3.58;;;1.95;;
20306;SDS011;10312;52.434;13.206;2023-07-13T06:02:08;2.20;;;1.50;;
20306;SDS011;10312;52.434;13.206;2023-07-13T06:04:36;3.05;;;1.52;;
20306;SDS011;10312;52.434;13.206;2023-07-13T06:07:02;2.75;;;1.75;;
20306;SDS011;10312;52.434;13.206;2023-07-13T06:09:29;2.95;;;1.52;;
20306;SDS011;10312;52.434;13.206;2023-07-13T06:11:56;4.07;;;1.88;;
20306;SDS011;10312;52.434;13.206;2023-07-13T06:14:23;4.03;;;2.10;;
20306;SDS011;10312;52.434;13.206;2023-07-13T06:16:50;3.63;;;1.45;;
20306;SDS011;10312;52.434;13.206;2023-07-13T06:19:17;7.85;;;1.60;;
20306;SDS011;10312;52.434;13.206;2023-07-13T06:21:44;3.08;;;1.30;;
20306;SDS011;10312;52.434;13.206;2023-07-13T06:24:10;3.45;;;1.58;;
20306;SDS011;10312;52.434;13.206;2023-07-13T06:26:37;5.45;;;1.65;;
20306;SDS011;10312;52.434;13.206;2023-07-13T06:29:04;3.70;;;1.50;;
20306;SDS011;10312;52.434;13.206;2023-07-13T06:31:31;2.67;;;1.35;;
20306;SDS011;10312;52.434;13.206;2023-07-13T06:33:58;4.68;;;1.52;;
20306;SDS011;10312;52.434;13.206;2023-07-13T06:36:25;3.50;;;1.67;;
20306;SDS011;10312;52.434;13.206;2023-07-13T06:38:52;4.28;;;1.70;;
20306;SDS011;10312;52.434;13.206;2023-07-13T06:41:19;3.60;;;1.38;;
20306;SDS011;10312;52.434;13.206;2023-07-13T06:43:46;5.65;;;1.80;;
20306;SDS011;10312;52.434;13.206;2023-07-13T06:46:13;2.95;;;1.40;;
20306;SDS011;10312;52.434;13.206;2023-07-13T06:48:40;3.40;;;1.30;;
20306;SDS011;10312;52.434;13.206;2023-07-13T06:51:07;2.85;;;1.30;;
20306;SDS011;10312;52.434;13.206;2023-07-13T06:53:37;2.15;;;1.15;;
20306;SDS011;10312;52.434;13.206;2023-07-13T06:56:04;4.35;;;1.13;;
20306;SDS011;10312;52.434;13.206;2023-07-13T06:58:33;2.47;;;1.17;;
20306;SDS011;10312;52.434;13.206;2023-07-13T07:01:04;3.20;;;1.25;;
20306;SDS011;10312;52.434;13.206;2023-07-13T07:03:33;3.42;;;1.15;;
20306;SDS011;10312;52.434;13.206;2023-07-13T07:06:01;2.05;;;1.00;;
20306;SDS011;10312;52.434;13.206;2023-07-13T07:08:52;2.38;;;1.10;;
20306;SDS011;10312;52.434;13.206;2023-07-13T07:11:20;1.38;;;0.90;;
20306;SDS011;10312;52.434;13.206;2023-07-13T07:13:49;3.33;;;1.20;;
20306;SDS011;10312;52.434;13.206;2023-07-13T07:16:17;2.70;;;1.10;;
20306;SDS011;10312;52.434;13.206;2023-07-13T07:18:45;4.88;;;1.30;;
20306;SDS011;10312;52.434;13.206;2023-07-13T07:21:12;2.42;;;0.93;;
20306;SDS011;10312;52.434;13.206;2023-07-13T07:23:40;3.08;;;1.02;;
20306;SDS011;10312;52.434;13.206;2023-07-13T07:26:07;5.57;;;1.27;;
20306;SDS011;10312;52.434;13.206;2023-07-13T07:28:35;3.25;;;1.23;;
20306;SDS011;10312;52.434;13.206;2023-07-13T07:31:05;3.15;;;1.00;;
20306;SDS011;10312;52.434;13.206;2023-07-13T07:33:35;2.65;;;0.95;;
20306;SDS011;10312;52.434;13.206;2023-07-13T07:36:02;4.10;;;1.20;;
20306;SDS011;10312;52.434;13.206;2023-07-13T07:38:32;3.20;;;1.00;;
20306;SDS011;10312;52.434;13.206;2023-07-13T07:41:02;2.67;;;1.10;;
20306;SDS011;10312;52.434;13.206;2023-07-13T07:43:34;2.20;;;0.80;;
20306;SDS011;10312;52.434;13.206;2023-07-13T07:46:03;3.65;;;1.20;;
20306;SDS011;10312;52.434;13.206;2023-07-13T07:48:30;1.77;;;0.90;;
20306;SDS011;10312;52.434;13.206;2023-07-13T07:50:57;1.55;;;0.80;;
20306;SDS011;10312;52.434;13.206;2023-07-13T07:53:24;4.00;;;1.05;;
20306;SDS011;10312;52.434;13.206;2023-07-13T07:55:51;2.42;;;1.00;;
20306;SDS011;10312;52.434;13.206;2023-07-13T07:58:21;3.42;;;0.93;;
20306;SDS011;10312;52.434;13.206;2023-07-13T08:00:51;3.28;;;1.00;;
20306;SDS011;10312;52.434;13.206;2023-07-13T08:03:21;6.28;;;1.05;;
20306;SDS011;10312;52.434;13.206;2023-07-13T08:05:54;3.33;;;1.17;;
20306;SDS011;10312;52.434;13.206;2023-07-13T08:08:24;3.67;;;1.02;;
20306;SDS011;10312;52.434;13.206;2023-07-13T08:10:51;2.33;;;1.13;;
20306;SDS011;10312;52.434;13.206;2023-07-13T08:13:23;1.90;;;0.98;;
20306;SDS011;10312;52.434;13.206;2023-07-13T08:15:50;3.33;;;1.10;;
20306;SDS011;10312;52.434;13.206;2023-07-13T08:18:17;4.18;;;1.25;;
20306;SDS011;10312;52.434;13.206;2023-07-13T08:20:44;2.80;;;1.08;;
20306;SDS011;10312;52.434;13.206;2023-07-13T08:23:11;3.03;;;1.02;;
20306;SDS011;10312;52.434;13.206;2023-07-13T08:25:38;2.75;;;0.98;;
20306;SDS011;10312;52.434;13.206;2023-07-13T08:28:05;4.65;;;1.15;;
20306;SDS011;10312;52.434;13.206;2023-07-13T08:30:32;2.50;;;0.80;;
20306;SDS011;10312;52.434;13.206;2023-07-13T08:32:59;2.80;;;1.20;;
20306;SDS011;10312;52.434;13.206;2023-07-13T08:35:26;3.30;;;1.17;;
20306;SDS011;10312;52.434;13.206;2023-07-13T08:37:53;3.40;;;0.90;;
20306;SDS011;10312;52.434;13.206;2023-07-13T08:40:23;4.82;;;1.00;;
20306;SDS011;10312;52.434;13.206;2023-07-13T08:42:53;2.80;;;0.82;;
20306;SDS011;10312;52.434;13.206;2023-07-13T08:48:13;3.03;;;0.88;;
20306;SDS011;10312;52.434;13.206;2023-07-13T08:53:55;5.03;;;1.50;;
20306;SDS011;10312;52.434;13.206;2023-07-13T08:56:26;7.18;;;1.40;;
20306;SDS011;10312;52.434;13.206;2023-07-13T08:58:57;3.42;;;1.20;;
20306;SDS011;10312;52.434;13.206;2023-07-13T09:04:29;3.53;;;0.90;;
20306;SDS011;10312;52.434;13.206;2023-07-13T09:09:40;3.47;;;1.20;;
20306;SDS011;10312;52.434;13.206;2023-07-13T09:12:17;4.50;;;1.20;;
20306;SDS011;10312;52.434;13.206;2023-07-13T09:14:51;2.13;;;0.80;;
20306;SDS011;10312;52.434;13.206;2023-07-13T09:17:27;2.75;;;0.93;;
20306;SDS011;10312;52.434;13.206;2023-07-13T09:19:58;3.05;;;1.02;;
20306;SDS011;10312;52.434;13.206;2023-07-13T09:22:31;2.47;;;1.10;;
20306;SDS011;10312;52.434;13.206;2023-07-13T09:27:42;7.35;;;1.25;;
20306;SDS011;10312;52.434;13.206;2023-07-13T09:32:47;4.18;;;1.80;;
20306;SDS011;10312;52.434;13.206;2023-07-13T09:35:19;5.30;;;1.50;;
20306;SDS011;10312;52.434;13.206;2023-07-13T09:37:48;4.50;;;1.80;;
20306;SDS011;10312;52.434;13.206;2023-07-13T09:40:53;4.20;;;2.00;;
20306;SDS011;10312;52.434;13.206;2023-07-13T09:43:13;5.63;;;2.13;;
20306;SDS011;10312;52.434;13.206;2023-07-13T09:45:40;2.95;;;1.92;;
20306;SDS011;10312;52.434;13.206;2023-07-13T09:48:12;4.45;;;2.03;;
20306;SDS011;10312;52.434;13.206;2023-07-13T09:50:42;3.95;;;1.80;;
20306;SDS011;10312;52.434;13.206;2023-07-13T09:53:16;3.80;;;1.92;;
20306;SDS011;10312;52.434;13.206;2023-07-13T09:55:51;4.38;;;1.90;;
20306;SDS011;10312;52.434;13.206;2023-07-13T09:58:20;4.05;;;1.60;;
20306;SDS011;10312;52.434;13.206;2023-07-13T10:00:55;3.67;;;1.70;;
20306;SDS011;10312;52.434;13.206;2023-07-13T10:03:27;4.40;;;1.50;;
20306;SDS011;10312;52.434;13.206;2023-07-13T10:06:01;4.47;;;1.95;;
20306;SDS011;10312;52.434;13.206;2023-07-13T10:08:36;5.32;;;1.70;;
20306;SDS011;10312;52.434;13.206;2023-07-13T10:13:54;5.50;;;1.50;;
20306;SDS011;10312;52.434;13.206;2023-07-13T10:16:24;3.00;;;1.40;;
20306;SDS011;10312;52.434;13.206;2023-07-13T10:18:54;7.25;;;1.65;;
20306;SDS011;10312;52.434;13.206;2023-07-13T10:21:23;2.88;;;1.60;;
20306;SDS011;10312;52.434;13.206;2023-07-13T10:24:19;5.25;;;1.48;;
20306;SDS011;10312;52.434;13.206;2023-07-13T10:26:52;3.40;;;1.30;;
20306;SDS011;10312;52.434;13.206;2023-07-13T10:29:23;2.97;;;1.40;;
20306;SDS011;10312;52.434;13.206;2023-07-13T10:31:52;5.13;;;1.58;;
20306;SDS011;10312;52.434;13.206;2023-07-13T10:34:19;4.38;;;1.67;;
20306;SDS011;10312;52.434;13.206;2023-07-13T10:36:47;6.43;;;1.65;;
20306;SDS011;10312;52.434;13.206;2023-07-13T10:39:19;8.15;;;1.67;;
20306;SDS011;10312;52.434;13.206;2023-07-13T10:41:53;3.80;;;1.33;;
20306;SDS011;10312;52.434;13.206;2023-07-13T10:44:26;4.65;;;2.08;;
20306;SDS011;10312;52.434;13.206;2023-07-13T10:47:07;3.03;;;1.50;;
20306;SDS011;10312;52.434;13.206;2023-07-13T10:49:35;3.60;;;1.60;;
20306;SDS011;10312;52.434;13.206;2023-07-13T10:52:03;6.65;;;2.00;;
20306;SDS011;10312;52.434;13.206;2023-07-13T10:54:31;5.75;;;1.90;;
20306;SDS011;10312;52.434;13.206;2023-07-13T10:57:13;5.60;;;1.58;;
20306;SDS011;10312;52.434;13.206;2023-07-13T10:59:49;5.20;;;2.47;;
20306;SDS011;10312;52.434;13.206;2023-07-13T11:02:42;5.38;;;1.63;;
20306;SDS011;10312;52.434;13.206;2023-07-13T11:05:16;3.92;;;1.50;;
20306;SDS011;10312;52.434;13.206;2023-07-13T11:07:52;4.43;;;1.33;;
20306;SDS011;10312;52.434;13.206;2023-07-13T11:16:34;4.88;;;1.70;;
20306;SDS011;10312;52.434;13.206;2023-07-13T11:27:36;3.03;;;1.63;;
20306;SDS011;10312;52.434;13.206;2023-07-13T11:30:25;3.65;;;1.50;;
20306;SDS011;10312;52.434;13.206;2023-07-13T11:39:04;5.97;;;2.10;;
20306;SDS011;10312;52.434;13.206;2023-07-13T11:41:48;3.28;;;1.55;;
20306;SDS011;10312;52.434;13.206;2023-07-13T11:44:19;2.70;;;1.27;;
20306;SDS011;10312;52.434;13.206;2023-07-13T11:46:48;3.58;;;1.48;;
20306;SDS011;10312;52.434;13.206;2023-07-13T11:49:24;3.97;;;1.33;;
20306;SDS011;10312;52.434;13.206;2023-07-13T11:51:53;4.95;;;1.30;;
20306;SDS011;10312;52.434;13.206;2023-07-13T11:54:31;3.72;;;1.40;;
20306;SDS011;10312;52.434;13.206;2023-07-13T11:57:23;2.25;;;1.33;;
20306;SDS011;10312;52.434;13.206;2023-07-13T12:00:02;3.80;;;1.40;;
20306;SDS011;10312;52.434;13.206;2023-07-13T12:02:36;5.85;;;1.60;;
20306;SDS011;10312;52.434;13.206;2023-07-13T12:05:05;6.90;;;1.63;;
20306;SDS011;10312;52.434;13.206;2023-07-13T12:07:33;1.73;;;1.08;;
20306;SDS011;10312;52.434;13.206;2023-07-13T12:12:58;5.38;;;1.02;;
20306;SDS011;10312;52.434;13.206;2023-07-13T12:15:40;2.33;;;1.25;;
20306;SDS011;10312;52.434;13.206;2023-07-13T12:18:17;5.05;;;1.70;;
20306;SDS011;10312;52.434;13.206;2023-07-13T12:20:46;3.53;;;1.40;;
20306;SDS011;10312;52.434;13.206;2023-07-13T12:23:32;5.00;;;1.48;;
20306;SDS011;10312;52.434;13.206;2023-07-13T12:26:01;3.63;;;1.33;;
20306;SDS011;10312;52.434;13.206;2023-07-13T12:31:00;3.25;;;1.23;;
20306;SDS011;10312;52.434;13.206;2023-07-13T12:33:28;3.28;;;1.17;;
20306;SDS011;10312;52.434;13.206;2023-07-13T12:35:56;2.42;;;1.13;;
20306;SDS011;10312;52.434;13.206;2023-07-13T12:38:26;3.22;;;1.17;;
20306;SDS011;10312;52.434;13.206;2023-07-13T12:40:53;2.95;;;1.20;;
20306;SDS011;10312;52.434;13.206;2023-07-13T12:43:21;3.63;;;1.30;;
20306;SDS011;10312;52.434;13.206;2023-07-13T12:45:59;2.70;;;1.08;;
20306;SDS011;10312;52.434;13.206;2023-07-13T12:48:42;2.80;;;1.08;;
20306;SDS011;10312;52.434;13.206;2023-07-13T12:51:26;4.75;;;1.30;;
20306;SDS011;10312;52.434;13.206;2023-07-13T12:53:56;4.65;;;1.17;;
20306;SDS011;10312;52.434;13.206;2023-07-13T12:56:26;3.17;;;1.15;;
20306;SDS011;10312;52.434;13.206;2023-07-13T12:58:58;3.83;;;1.27;;
20306;SDS011;10312;52.434;13.206;2023-07-13T13:01:28;3.90;;;1.10;;
20306;SDS011;10312;52.434;13.206;2023-07-13T13:03:57;4.07;;;1.20;;
20306;SDS011;10312;52.434;13.206;2023-07-13T13:06:28;5.75;;;1.30;;
20306;SDS011;10312;52.434;13.206;2023-07-13T13:08:57;3.97;;;0.88;;
20306;SDS011;10312;52.434;13.206;2023-07-13T13:11:26;5.68;;;1.33;;
20306;SDS011;10312;52.434;13.206;2023-07-13T13:13:54;3.40;;;1.10;;
20306;SDS011;10312;52.434;13.206;2023-07-13T13:16:22;1.70;;;0.90;;
20306;SDS011;10312;52.434;13.206;2023-07-13T13:18:55;3.38;;;1.05;;
20306;SDS011;10312;52.434;13.206;2023-07-13T13:21:23;3.38;;;1.10;;
20306;SDS011;10312;52.434;13.206;2023-07-13T13:23:52;3.90;;;0.80;;
20306;SDS011;10312;52.434;13.206;2023-07-13T13:26:21;2.90;;;1.00;;
20306;SDS011;10312;52.434;13.206;2023-07-13T13:28:48;4.75;;;1.05;;
20306;SDS011;10312;52.434;13.206;2023-07-13T13:31:16;4.00;;;0.82;;
20306;SDS011;10312;52.434;13.206;2023-07-13T13:33:43;3.38;;;1.00;;
20306;SDS011;10312;52.434;13.206;2023-07-13T13:36:16;3.38;;;0.90;;
20306;SDS011;10312;52.434;13.206;2023-07-13T13:38:44;3.22;;;0.80;;
20306;SDS011;10312;52.434;13.206;2023-07-13T13:41:12;3.17;;;0.95;;
20306;SDS011;10312;52.434;13.206;2023-07-13T13:43:40;2.58;;;1.15;;
20306;SDS011;10312;52.434;13.206;2023-07-13T13:46:18;2.13;;;0.82;;
20306;SDS011;10312;52.434;13.206;2023-07-13T13:48:47;2.95;;;1.10;;
20306;SDS011;10312;52.434;13.206;2023-07-13T13:51:17;1.88;;;0.80;;
20306;SDS011;10312;52.434;13.206;2023-07-13T13:53:46;1.95;;;0.85;;
20306;SDS011;10312;52.434;13.206;2023-07-13T13:56:13;3.60;;;0.98;;
20306;SDS011;10312;52.434;13.206;2023-07-13T13:58:40;2.28;;;0.82;;
20306;SDS011;10312;52.434;13.206;2023-07-13T14:01:12;2.88;;;1.10;;
20306;SDS011;10312;52.434;13.206;2023-07-13T14:03:51;2.42;;;0.88;;
20306;SDS011;10312;52.434;13.206;2023-07-13T14:06:18;2.90;;;1.00;;
20306;SDS011;10312;52.434;13.206;2023-07-13T14:08:45;3.15;;;0.80;;
20306;SDS011;10312;52.434;13.206;2023-07-13T14:11:13;2.90;;;0.75;;
20306;SDS011;10312;52.434;13.206;2023-07-13T14:13:45;2.15;;;0.70;;
20306;SDS011;10312;52.434;13.206;2023-07-13T14:16:16;2.85;;;0.70;;
20306;SDS011;10312;52.434;13.206;2023-07-13T14:18:45;3.40;;;0.73;;
20306;SDS011;10312;52.434;13.206;2023-07-13T14:21:16;1.85;;;0.70;;
20306;SDS011;10312;52.434;13.206;2023-07-13T14:23:45;4.57;;;0.93;;
20306;SDS011;10312;52.434;13.206;2023-07-13T14:26:22;3.58;;;1.02;;
20306;SDS011;10312;52.434;13.206;2023-07-13T14:28:52;5.38;;;0.98;;
20306;SDS011;10312;52.434;13.206;2023-07-13T14:31:21;3.38;;;0.65;;
20306;SDS011;10312;52.434;13.206;2023-07-13T14:33:54;2.25;;;0.80;;
20306;SDS011;10312;52.434;13.206;2023-07-13T14:36:24;2.47;;;0.82;;
20306;SDS011;10312;52.434;13.206;2023-07-13T14:38:53;5.03;;;0.70;;
20306;SDS011;10312;52.434;13.206;2023-07-13T14:41:21;2.28;;;0.60;;
20306;SDS011;10312;52.434;13.206;2023-07-13T14:43:48;3.45;;;0.60;;
20306;SDS011;10312;52.434;13.206;2023-07-13T14:46:22;2.25;;;0.80;;
20306;SDS011;10312;52.434;13.206;2023-07-13T14:48:54;3.22;;;0.60;;
20306;SDS011;10312;52.434;13.206;2023-07-13T14:51:33;2.38;;;0.60;;
20306;SDS011;10312;52.434;13.206;2023-07-13T14:54:04;1.75;;;0.60;;
20306;SDS011;10312;52.434;13.206;2023-07-13T14:56:32;2.10;;;0.75;;
20306;SDS011;10312;52.434;13.206;2023-07-13T14:58:59;5.82;;;0.88;;
20306;SDS011;10312;52.434;13.206;2023-07-13T15:01:26;1.58;;;0.52;;
20306;SDS011;10312;52.434;13.206;2023-07-13T15:03:53;1.77;;;0.60;;
20306;SDS011;10312;52.434;13.206;2023-07-13T15:06:20;1.45;;;0.60;;
20306;SDS011;10312;52.434;13.206;2023-07-13T15:08:47;1.85;;;0.63;;
20306;SDS011;10312;52.434;13.206;2023-07-13T15:11:15;1.92;;;0.60;;
20306;SDS011;10312;52.434;13.206;2023-07-13T15:13:42;1.58;;;0.60;;
20306;SDS011;10312;52.434;13.206;2023-07-13T15:16:14;1.35;;;0.63;;
20306;SDS011;10312;52.434;13.206;2023-07-13T15:18:44;4.60;;;1.15;;
20306;SDS011;10312;52.434;13.206;2023-07-13T15:21:14;3.47;;;0.75;;
20306;SDS011;10312;52.434;13.206;2023-07-13T15:23:48;2.15;;;0.73;;
20306;SDS011;10312;52.434;13.206;2023-07-13T15:26:15;2.53;;;0.50;;
20306;SDS011;10312;52.434;13.206;2023-07-13T15:28:44;3.70;;;0.90;;
20306;SDS011;10312;52.434;13.206;2023-07-13T15:31:17;1.65;;;0.60;;
20306;SDS011;10312;52.434;13.206;2023-07-13T15:33:46;3.35;;;0.98;;
20306;SDS011;10312;52.434;13.206;2023-07-13T15:36:16;1.98;;;0.60;;
20306;SDS011;10312;52.434;13.206;2023-07-13T15:38:44;2.03;;;0.77;;